Time;durP1;ratioP1;P1;durP2;ratioP2;P2;SDS_P1;SDS_P2;PMS_P1;PMS_P2;Temp;Humidity;BMP_temperature;BMP_pressure;BME280_temperature;BME280_humidity;BME280_pressure;Samples;Min_cycle;Max_cycle;Signal;HPM_P1;HPM_P2
2022/08/06 00:02:12;;;;;;;13.85;8.07;;;;;;;-147.76;100.00;60361.69;5115027;28;20092;-79
2022/08/06 00:04:39;;;;;;;15.15;8.30;;;;;;;-147.76;100.00;60361.69;5115758;28;20499;-80
2022/08/06 00:07:07;;;;;;;12.88;8.35;;;;;;;-147.76;100.00;60361.69;5115210;28;20093;-79
2022/08/06 00:09:34;;;;;;;13.45;7.60;;;;;;;-147.76;100.00;60361.69;5115294;28;20043;-79
2022/08/06 00:12:05;;;;;;;12.63;8.02;;;;;;;-147.76;100.00;60361.69;5115592;28;20044;-80
2022/08/06 00:14:33;;;;;;;16.10;8.45;;;;;;;-147.76;100.00;60361.69;5115727;28;20043;-80
2022/08/06 00:17:00;;;;;;;13.32;7.97;;;;;;;-147.76;100.00;60361.69;5115081;28;20043;-80
2022/08/06 00:19:28;;;;;;;14.20;8.75;;;;;;;-147.76;100.00;60361.69;5115266;28;20039;-80
2022/08/06 00:21:56;;;;;;;13.00;8.23;;;;;;;-147.76;100.00;60361.69;5115245;28;20043;-79
2022/08/06 00:24:23;;;;;;;14.90;8.40;;;;;;;-147.76;100.00;60361.69;5115333;28;20043;-80
2022/08/06 00:26:51;;;;;;;15.27;8.30;;;;;;;-147.76;100.00;60361.69;5115246;28;20047;-80
2022/08/06 00:29:20;;;;;;;16.45;8.30;;;;;;;-147.76;100.00;60361.69;5114792;28;20501;-80
2022/08/06 00:31:47;;;;;;;12.23;8.13;;;;;;;-147.76;100.00;60361.69;5114931;27;20051;-80
2022/08/06 00:34:15;;;;;;;15.45;8.40;;;;;;;-147.76;100.00;60361.69;5115167;28;20044;-79
2022/08/06 00:36:42;;;;;;;13.00;7.72;;;;;;;-147.76;100.00;60361.69;5115068;28;20044;-79
2022/08/06 00:39:09;;;;;;;17.40;8.38;;;;;;;-147.76;100.00;60361.69;5115076;28;20097;-80
2022/08/06 00:41:38;;;;;;;16.48;8.35;;;;;;;-147.76;100.00;60361.69;5114937;28;20044;-79
2022/08/06 00:44:05;;;;;;;14.48;8.50;;;;;;;-147.76;100.00;60361.69;5115011;28;20492;-79
2022/08/06 00:46:34;;;;;;;14.68;9.02;;;;;;;-147.76;100.00;60361.69;5114505;28;20052;-79
2022/08/06 00:49:02;;;;;;;13.68;8.00;;;;;;;-147.76;100.00;60361.69;5114353;27;20039;-80
2022/08/06 00:51:29;;;;;;;14.88;8.65;;;;;;;-147.76;100.00;60361.69;5114645;28;20500;-80
2022/08/06 00:53:57;;;;;;;12.65;8.20;;;;;;;-147.76;100.00;60361.69;5114844;28;20049;-79
2022/08/06 00:56:25;;;;;;;14.68;7.93;;;;;;;-147.76;100.00;60361.69;5114245;28;20047;-79
2022/08/06 00:58:52;;;;;;;18.33;8.60;;;;;;;-147.76;100.00;60361.69;5114596;27;20048;-79
2022/08/06 01:01:20;;;;;;;12.80;8.18;;;;;;;-147.76;100.00;60361.69;5114323;28;20061;-79
2022/08/06 01:03:49;;;;;;;15.98;8.43;;;;;;;-147.76;100.00;60361.69;5114612;28;20499;-79
2022/08/06 01:06:16;;;;;;;13.77;8.23;;;;;;;-147.76;100.00;60361.69;5114437;28;20096;-79
2022/08/06 01:08:44;;;;;;;14.77;8.15;;;;;;;-147.76;100.00;60361.69;5114091;28;20043;-79
2022/08/06 01:11:11;;;;;;;16.02;8.55;;;;;;;-147.76;100.00;60361.69;5114432;27;20039;-79
2022/08/06 01:13:39;;;;;;;17.98;8.90;;;;;;;-147.76;100.00;60361.69;5113620;27;20408;-80
2022/08/06 01:16:13;;;;;;;13.40;8.32;;;;;;;-147.76;100.00;60361.69;5113945;28;20051;-80
2022/08/06 01:18:56;;;;;;;13.63;9.30;;;;;;;-147.76;100.00;60361.69;5114519;27;20043;-79
2022/08/06 01:21:43;;;;;;;13.95;9.70;;;;;;;-147.76;100.00;60361.69;5113763;28;20508;-80
2022/08/06 01:24:39;;;;;;;13.85;9.05;;;;;;;-147.76;100.00;60361.69;5115475;28;20040;-79
2022/08/06 01:27:37;;;;;;;14.88;9.35;;;;;;;-147.76;100.00;60361.69;5114087;28;20494;-79
2022/08/06 01:30:08;;;;;;;18.65;8.70;;;;;;;-147.76;100.00;60361.69;5030890;28;20061;-79
2022/08/06 01:32:40;;;;;;;13.75;8.43;;;;;;;-147.76;100.00;60361.69;5031295;28;20095;-79
2022/08/06 01:35:10;;;;;;;16.85;9.80;;;;;;;-147.76;100.00;60361.69;5032267;28;20534;-79
2022/08/06 01:37:41;;;;;;;12.60;8.50;;;;;;;-147.76;100.00;60361.69;5031363;28;20049;-79
2022/08/06 01:40:13;;;;;;;14.73;9.55;;;;;;;-147.76;100.00;60361.69;5033141;28;20076;-79
2022/08/06 01:42:42;;;;;;;16.55;8.82;;;;;;;-147.76;100.00;60361.69;5031144;28;20056;-80
2022/08/06 01:45:13;;;;;;;14.23;9.18;;;;;;;-147.76;100.00;60361.69;5030864;28;20049;-79
2022/08/06 01:47:42;;;;;;;12.70;8.43;;;;;;;-147.76;100.00;60361.69;5032036;28;20076;-79
2022/08/06 01:50:11;;;;;;;14.80;9.02;;;;;;;-147.76;100.00;60361.69;5030442;28;20057;-79
2022/08/06 01:52:40;;;;;;;14.68;8.50;;;;;;;-147.76;100.00;60361.69;5031272;28;20057;-79
2022/08/06 01:55:10;;;;;;;15.13;8.70;;;;;;;-147.76;100.00;60361.69;5031197;28;20446;-79
2022/08/06 01:57:37;;;;;;;15.25;8.05;;;;;;;-147.76;100.00;60361.69;5031086;28;20549;-79
2022/08/06 02:00:08;;;;;;;15.10;7.65;;;;;;;-147.76;100.00;60361.69;5030557;28;20379;-79
2022/08/06 02:02:36;;;;;;;14.32;7.60;;;;;;;-147.76;100.00;60361.69;5031314;28;20045;-79
2022/08/06 02:05:05;;;;;;;15.27;7.28;;;;;;;-147.76;100.00;60361.69;5047532;28;20066;-79
2022/08/06 02:07:35;;;;;;;13.15;7.55;;;;;;;-147.76;100.00;60361.69;5113534;28;20051;-79
2022/08/06 02:10:07;;;;;;;11.88;7.40;;;;;;;-147.76;100.00;60361.69;5113123;28;20047;-79
2022/08/06 02:12:36;;;;;;;14.43;7.65;;;;;;;-147.76;100.00;60361.69;5113455;28;20393;-79
2022/08/06 02:15:09;;;;;;;14.40;8.32;;;;;;;-147.76;100.00;60361.69;5113488;28;20171;-80
2022/08/06 02:17:41;;;;;;;13.07;9.00;;;;;;;-147.76;100.00;60361.69;5114514;28;20404;-79
2022/08/06 02:20:10;;;;;;;14.68;8.70;;;;;;;-147.76;100.00;60361.69;5114685;28;20047;-79
2022/08/06 02:22:40;;;;;;;13.15;8.52;;;;;;;-147.76;100.00;60361.69;5113317;28;20066;-79
2022/08/06 02:25:11;;;;;;;14.70;8.95;;;;;;;-147.76;100.00;60361.69;5117881;27;20044;-79
2022/08/06 02:27:41;;;;;;;15.30;9.02;;;;;;;-147.76;100.00;60361.69;5118217;27;20127;-79
2022/08/06 02:30:12;;;;;;;14.48;9.43;;;;;;;-147.76;100.00;60361.69;5117451;28;20481;-80
2022/08/06 02:32:39;;;;;;;13.57;8.73;;;;;;;-147.76;100.00;60361.69;5117670;28;20047;-79
2022/08/06 02:35:07;;;;;;;15.85;9.43;;;;;;;-147.76;100.00;60361.69;5116984;28;20101;-79
2022/08/06 02:37:37;;;;;;;13.18;7.68;;;;;;;-147.76;100.00;60361.69;5117186;28;20044;-79
2022/08/06 02:40:10;;;;;;;14.60;7.28;;;;;;;-147.76;100.00;60361.69;5119253;28;20048;-79
2022/08/06 02:42:42;;;;;;;12.50;7.90;;;;;;;-147.76;100.00;60361.69;5117125;27;20043;-79
2022/08/06 02:45:16;;;;;;;11.43;7.30;;;;;;;-147.76;100.00;60361.69;5118038;28;20508;-79
2022/08/06 02:47:48;;;;;;;12.57;8.20;;;;;;;-147.76;100.00;60361.69;5116847;28;20484;-79
2022/08/06 02:50:19;;;;;;;12.18;7.60;;;;;;;-147.76;100.00;60361.69;5116683;28;20501;-79
2022/08/06 02:52:50;;;;;;;14.90;8.48;;;;;;;-147.76;100.00;60361.69;5118753;27;20374;-79
2022/08/06 02:55:19;;;;;;;13.45;8.10;;;;;;;-147.76;100.00;60361.69;5117606;27;20047;-79
2022/08/06 02:57:51;;;;;;;13.82;8.20;;;;;;;-147.76;100.00;60361.69;5116595;28;20097;-79
2022/08/06 03:00:21;;;;;;;12.65;7.82;;;;;;;-147.76;100.00;60361.69;5117587;27;20381;-79
2022/08/06 03:02:50;;;;;;;12.50;7.95;;;;;;;-147.76;100.00;60361.69;5116783;28;20097;-79
2022/08/06 03:05:20;;;;;;;13.38;8.57;;;;;;;-147.76;100.00;60361.69;5116762;28;20047;-79
2022/08/06 03:07:50;;;;;;;17.20;8.75;;;;;;;-147.76;100.00;60361.69;5117381;27;20039;-79
2022/08/06 03:10:19;;;;;;;14.35;9.07;;;;;;;-147.76;100.00;60361.69;5117745;28;20126;-79
2022/08/06 03:12:47;;;;;;;13.88;8.88;;;;;;;-147.76;100.00;60361.69;5116623;28;20040;-79
2022/08/06 03:15:16;;;;;;;16.25;9.23;;;;;;;-147.76;100.00;60361.69;5116646;28;20046;-79
2022/08/06 03:17:45;;;;;;;14.18;9.13;;;;;;;-147.76;100.00;60361.69;5116482;28;20044;-79
2022/08/06 03:20:16;;;;;;;14.43;9.00;;;;;;;-147.76;100.00;60361.69;5116516;28;20051;-79
2022/08/06 03:22:45;;;;;;;16.77;10.02;;;;;;;-147.76;100.00;60361.69;5118480;28;20048;-79
2022/08/06 03:25:14;;;;;;;17.02;9.48;;;;;;;-147.76;100.00;60361.69;5115641;28;20043;-79
2022/08/06 03:27:42;;;;;;;15.60;9.80;;;;;;;-147.76;100.00;60361.69;5116304;28;20044;-79
2022/08/06 03:30:11;;;;;;;14.70;10.13;;;;;;;-147.76;100.00;60361.69;5116437;28;20104;-79
2022/08/06 03:32:39;;;;;;;14.70;9.40;;;;;;;-147.76;100.00;60361.69;5116131;28;20435;-79
2022/08/06 03:35:09;;;;;;;15.60;10.23;;;;;;;-147.76;100.00;60361.69;5115391;28;20048;-79
2022/08/06 03:37:37;;;;;;;15.13;9.30;;;;;;;-147.76;100.00;60361.69;5116273;28;20043;-79
2022/08/06 03:40:06;;;;;;;14.48;9.20;;;;;;;-147.76;100.00;60361.69;5117458;28;20129;-79
2022/08/06 03:42:34;;;;;;;15.57;9.98;;;;;;;-147.76;100.00;60361.69;5115974;28;20047;-79
2022/08/06 03:45:02;;;;;;;16.80;11.30;;;;;;;-147.76;100.00;60361.69;5115663;28;20542;-80
2022/08/06 03:47:32;;;;;;;16.77;10.80;;;;;;;-147.76;100.00;60361.69;5115755;28;20043;-79
2022/08/06 03:50:05;;;;;;;17.00;10.88;;;;;;;-147.76;100.00;60361.69;5115484;28;20146;-79
2022/08/06 03:52:39;;;;;;;15.63;10.60;;;;;;;-147.76;100.00;60361.69;5116292;28;20043;-79
2022/08/06 03:55:09;;;;;;;16.30;10.75;;;;;;;-147.76;100.00;60361.69;5116544;27;20044;-79
2022/08/06 03:57:40;;;;;;;19.38;11.68;;;;;;;-147.76;100.00;60361.69;5117104;27;20043;-79
2022/08/06 04:00:10;;;;;;;17.83;11.95;;;;;;;-147.76;100.00;60361.69;5117408;27;20054;-79
2022/08/06 04:02:45;;;;;;;18.35;12.05;;;;;;;-147.76;100.00;60361.69;5115675;28;20085;-79
2022/08/06 04:05:15;;;;;;;19.70;12.60;;;;;;;-147.76;100.00;60361.69;5115705;28;20052;-79
2022/08/06 04:07:44;;;;;;;18.15;12.57;;;;;;;-147.76;100.00;60361.69;5116445;27;20047;-80
2022/08/06 04:10:12;;;;;;;17.48;10.77;;;;;;;-147.76;100.00;60361.69;5115098;27;20040;-79
2022/08/06 04:12:40;;;;;;;17.83;10.50;;;;;;;-147.76;100.00;60361.69;5115835;28;20593;-79
2022/08/06 04:15:09;;;;;;;19.67;11.82;;;;;;;-147.76;100.00;60361.69;5115582;28;20390;-79
2022/08/06 04:17:38;;;;;;;18.60;12.30;;;;;;;-147.76;100.00;60361.69;5115595;27;20062;-79
2022/08/06 04:20:08;;;;;;;18.77;12.55;;;;;;;-147.76;100.00;60361.69;5115476;28;20117;-79
2022/08/06 04:22:35;;;;;;;19.30;12.38;;;;;;;-147.76;100.00;60361.69;5115241;28;20044;-79
2022/08/06 04:25:04;;;;;;;19.33;12.80;;;;;;;-147.76;100.00;60361.69;5114888;28;20097;-79
2022/08/06 04:27:33;;;;;;;19.33;12.75;;;;;;;-147.76;100.00;60361.69;5115076;28;20069;-79
2022/08/06 04:30:01;;;;;;;17.15;11.82;;;;;;;-147.76;100.00;60361.69;5115369;28;20043;-79
2022/08/06 04:32:29;;;;;;;19.25;12.20;;;;;;;-147.76;100.00;60361.69;5115163;28;20043;-79
2022/08/06 04:34:57;;;;;;;19.00;13.20;;;;;;;-147.76;100.00;60361.69;5115169;28;20039;-79
2022/08/06 04:37:25;;;;;;;19.23;12.27;;;;;;;-147.76;100.00;60361.69;5114857;28;20044;-79
2022/08/06 04:39:53;;;;;;;17.73;11.57;;;;;;;-147.76;100.00;60361.69;5114278;28;20069;-80
2022/08/06 04:42:22;;;;;;;16.90;12.30;;;;;;;-147.76;100.00;60361.69;5114980;28;20047;-79
2022/08/06 04:44:50;;;;;;;17.88;12.75;;;;;;;-147.76;100.00;60361.69;5114938;28;20096;-79
2022/08/06 04:47:18;;;;;;;20.85;12.25;;;;;;;-147.76;100.00;60361.69;5114075;28;20097;-80
2022/08/06 04:49:46;;;;;;;17.65;12.40;;;;;;;-147.76;100.00;60361.69;5105450;28;20105;-79
2022/08/06 04:52:22;;;;;;;21.05;12.27;;;;;;;-147.76;100.00;60361.69;5110603;28;20039;-79
2022/08/06 04:54:49;;;;;;;18.98;12.43;;;;;;;-147.76;100.00;60361.69;5111029;28;20309;-79
2022/08/06 04:57:17;;;;;;;17.17;12.43;;;;;;;-147.76;100.00;60361.69;5110721;28;20044;-79
2022/08/06 04:59:46;;;;;;;19.55;12.25;;;;;;;-147.76;100.00;60361.69;5111137;28;20336;-79
2022/08/06 05:02:14;;;;;;;19.10;12.60;;;;;;;-147.76;100.00;60361.69;5110943;28;20523;-79
2022/08/06 05:04:43;;;;;;;17.73;12.10;;;;;;;-147.76;100.00;60361.69;5110739;28;20067;-80
2022/08/06 05:07:14;;;;;;;18.10;12.40;;;;;;;-147.76;100.00;60361.69;5110303;28;20493;-79
2022/08/06 05:09:42;;;;;;;18.65;12.15;;;;;;;-147.76;100.00;60361.69;5111794;28;20051;-79
2022/08/06 05:12:16;;;;;;;15.98;11.75;;;;;;;-147.76;100.00;60361.69;5110809;27;20043;-78
2022/08/06 05:14:49;;;;;;;17.92;11.65;;;;;;;-147.76;100.00;60361.69;5112554;27;20051;-78
2022/08/06 05:17:19;;;;;;;18.48;12.07;;;;;;;-147.76;100.00;60361.69;5110635;28;20043;-78
2022/08/06 05:19:52;;;;;;;18.30;12.25;;;;;;;-147.76;100.00;60361.69;5111339;28;20047;-79
2022/08/06 05:22:20;;;;;;;17.50;12.07;;;;;;;-147.76;100.00;60361.69;5111528;28;20558;-79
2022/08/06 05:24:48;;;;;;;17.35;12.27;;;;;;;-147.76;100.00;60361.69;5110563;28;20044;-79
2022/08/06 05:27:16;;;;;;;18.20;11.93;;;;;;;-147.76;100.00;60361.69;5110449;28;20039;-79
2022/08/06 05:29:46;;;;;;;19.08;12.60;;;;;;;-147.76;100.00;60361.69;5110068;27;20040;-79
2022/08/06 05:32:13;;;;;;;19.00;11.80;;;;;;;-147.76;100.00;60361.69;5110538;27;20052;-80
2022/08/06 05:34:41;;;;;;;17.23;12.00;;;;;;;-147.76;100.00;60361.69;5110452;27;20047;-79
2022/08/06 05:37:08;;;;;;;18.48;12.18;;;;;;;-147.76;100.00;60361.69;5110076;28;20126;-79
2022/08/06 05:39:36;;;;;;;17.52;12.30;;;;;;;-147.76;100.00;60361.69;5110382;28;20047;-79
2022/08/06 05:42:04;;;;;;;18.63;12.00;;;;;;;-147.76;100.00;60361.69;5109894;28;20074;-79
2022/08/06 05:44:31;;;;;;;17.67;12.15;;;;;;;-147.76;100.00;60361.69;5110161;28;20381;-79
2022/08/06 05:47:05;;;;;;;18.02;12.07;;;;;;;-147.76;100.00;60361.69;5110165;28;20072;-79
2022/08/06 05:49:37;;;;;;;16.85;11.85;;;;;;;-147.76;100.00;60361.69;5110877;27;20055;-79
2022/08/06 05:52:09;;;;;;;18.08;12.00;;;;;;;-147.76;100.00;60361.69;5110048;28;20048;-79
2022/08/06 05:54:41;;;;;;;18.90;12.77;;;;;;;-147.76;100.00;60361.69;5109538;28;20077;-79
2022/08/06 05:57:13;;;;;;;18.25;11.57;;;;;;;-147.76;100.00;60361.69;5110895;27;20044;-80
2022/08/06 05:59:44;;;;;;;17.95;11.63;;;;;;;-147.76;100.00;60361.69;5110841;28;20516;-79
2022/08/06 06:02:14;;;;;;;16.52;12.02;;;;;;;-147.76;100.00;60361.69;5111458;28;20112;-79
2022/08/06 06:04:43;;;;;;;17.65;12.00;;;;;;;-147.76;100.00;60361.69;5109295;28;20047;-79
2022/08/06 06:07:11;;;;;;;17.88;11.65;;;;;;;-147.76;100.00;60361.69;5109878;28;20480;-79
2022/08/06 06:09:39;;;;;;;16.70;11.20;;;;;;;-147.76;100.00;60361.69;5109916;28;20054;-79
2022/08/06 06:12:07;;;;;;;16.50;10.70;;;;;;;-147.76;100.00;60361.69;5110019;28;20043;-79
2022/08/06 06:14:38;;;;;;;17.98;10.02;;;;;;;-147.76;100.00;60361.69;5109908;28;20047;-79
2022/08/06 06:17:19;;;;;;;21.85;10.90;;;;;;;-147.76;100.00;60361.69;5110287;27;20051;-78
2022/08/06 06:19:54;;;;;;;16.52;10.10;;;;;;;-147.76;100.00;60361.69;5110109;28;20052;-79
2022/08/06 06:22:24;;;;;;;16.48;11.07;;;;;;;-147.76;100.00;60361.69;5110898;27;20058;-79
2022/08/06 06:24:57;;;;;;;16.60;10.80;;;;;;;-147.76;100.00;60361.69;5109852;28;20059;-79
2022/08/06 06:27:29;;;;;;;17.13;10.50;;;;;;;-147.76;100.00;60361.69;5111703;28;20083;-79
2022/08/06 06:30:00;;;;;;;14.60;10.10;;;;;;;-147.76;100.00;60361.69;5109936;28;20048;-76
2022/08/06 06:32:46;;;;;;;16.08;9.90;;;;;;;-147.76;100.00;60361.69;5112014;28;20143;-76
2022/08/06 06:35:22;;;;;;;17.38;10.57;;;;;;;-147.76;100.00;60361.69;5112613;28;20059;-79
2022/08/06 06:37:55;;;;;;;18.75;11.02;;;;;;;-147.76;100.00;60361.69;5113808;28;20071;-82
2022/08/06 06:40:43;;;;;;;15.57;9.88;;;;;;;-147.76;100.00;60361.69;5113891;28;20051;-81
2022/08/06 06:43:14;;;;;;;15.23;9.52;;;;;;;-147.76;100.00;60361.69;5113907;27;20067;-82
2022/08/06 06:45:48;;;;;;;13.52;8.68;;;;;;;-147.76;100.00;60361.69;5114140;28;20044;-82
2022/08/06 06:48:21;;;;;;;14.85;8.07;;;;;;;-147.76;100.00;60361.69;5114254;27;20073;-84
2022/08/06 06:50:52;;;;;;;13.00;8.52;;;;;;;-147.76;100.00;60361.69;5114575;27;20063;-78
2022/08/06 06:53:20;;;;;;;13.73;8.80;;;;;;;-147.76;100.00;60361.69;5111597;28;20052;-79
2022/08/06 06:55:49;;;;;;;16.23;8.88;;;;;;;-147.76;100.00;60361.69;5108741;28;20477;-78
2022/08/06 06:58:20;;;;;;;14.18;8.43;;;;;;;-147.76;100.00;60361.69;5109550;28;20050;-79
2022/08/06 07:00:48;;;;;;;16.23;8.43;;;;;;;-147.76;100.00;60361.69;5110909;28;20051;-78
2022/08/06 07:03:18;;;;;;;15.60;7.85;;;;;;;-147.76;100.00;60361.69;5109234;28;20093;-78
2022/08/06 07:05:47;;;;;;;13.65;8.15;;;;;;;-147.76;100.00;60361.69;5108920;28;20048;-78
2022/08/06 07:08:16;;;;;;;17.42;8.55;;;;;;;-147.76;100.00;60361.69;5109202;28;20039;-78
2022/08/06 07:10:44;;;;;;;13.10;8.95;;;;;;;-147.76;100.00;60361.69;5110160;28;20515;-77
2022/08/06 07:13:13;;;;;;;14.38;7.80;;;;;;;-147.76;100.00;60361.69;5112876;28;20512;-78
2022/08/06 07:15:42;;;;;;;13.43;7.68;;;;;;;-147.76;100.00;60361.69;5113208;28;20410;-78
2022/08/06 07:18:10;;;;;;;16.75;7.57;;;;;;;-147.76;100.00;60361.69;5112275;27;20044;-78
2022/08/06 07:20:39;;;;;;;14.07;8.02;;;;;;;-147.76;100.00;60361.69;5113110;28;20054;-78
2022/08/06 07:23:09;;;;;;;12.98;7.70;;;;;;;-147.76;100.00;60361.69;5113026;27;20404;-77
2022/08/06 07:25:38;;;;;;;17.50;8.07;;;;;;;-147.76;100.00;60361.69;5112247;28;20079;-77
2022/08/06 07:28:06;;;;;;;12.40;7.75;;;;;;;-147.76;100.00;60361.69;5112501;28;20135;-78
2022/08/06 07:30:34;;;;;;;13.10;8.15;;;;;;;-147.76;100.00;60361.69;5112472;28;20500;-78
2022/08/06 07:33:03;;;;;;;13.50;7.82;;;;;;;-147.76;100.00;60361.69;5112373;28;20100;-78
2022/08/06 07:35:32;;;;;;;13.80;8.23;;;;;;;-147.76;100.00;60361.69;5112521;27;20043;-78
2022/08/06 07:38:03;;;;;;;16.45;8.45;;;;;;;-147.76;100.00;60361.69;5112503;28;20126;-78
2022/08/06 07:40:33;;;;;;;12.40;7.60;;;;;;;-147.76;100.00;60361.69;5111962;28;20051;-77
2022/08/06 07:43:18;;;;;;;11.90;7.07;;;;;;;-147.76;100.00;60361.69;5112566;27;20089;-78
2022/08/06 07:45:46;;;;;;;13.38;7.70;;;;;;;-147.76;100.00;60361.69;5110938;27;20047;-79
2022/08/06 07:48:14;;;;;;;13.80;7.85;;;;;;;-147.76;100.00;60361.69;5103663;28;20051;-78
2022/08/06 07:50:44;;;;;;;12.57;7.28;;;;;;;-147.76;100.00;60361.69;5110290;28;20686;-77
2022/08/06 07:53:13;;;;;;;14.13;7.82;;;;;;;-147.76;100.00;60361.69;5109467;28;20044;-78
2022/08/06 07:55:42;;;;;;;13.20;7.28;;;;;;;-147.76;100.00;60361.69;5110843;28;20052;-79
2022/08/06 07:58:10;;;;;;;16.77;7.65;;;;;;;-147.76;100.00;60361.69;5105129;27;20069;-76
2022/08/06 08:00:38;;;;;;;13.23;7.13;;;;;;;-147.76;100.00;60361.69;5104239;28;20500;-77
2022/08/06 08:08:39;;;;;;;12.47;6.53;;;;;;;-147.76;100.00;60361.69;5110460;28;20305;-76
2022/08/06 08:11:06;;;;;;;19.40;7.10;;;;;;;-147.76;100.00;60361.69;5108301;28;20097;-77
2022/08/06 08:13:35;;;;;;;13.20;6.53;;;;;;;-147.76;100.00;60361.69;5110247;28;20039;-78
2022/08/06 08:16:02;;;;;;;17.48;7.05;;;;;;;-147.76;100.00;60361.69;5109551;28;20036;-78
2022/08/06 08:18:31;;;;;;;13.07;6.50;;;;;;;-147.76;100.00;60361.69;5110236;28;20047;-77
2022/08/06 08:20:59;;;;;;;13.43;6.82;;;;;;;-147.76;100.00;60361.69;5104258;28;20489;-78
2022/08/06 08:23:28;;;;;;;12.70;6.25;;;;;;;-147.76;100.00;60361.69;5110016;28;20040;-78
2022/08/06 08:25:57;;;;;;;14.45;7.38;;;;;;;-147.76;100.00;60361.69;5110276;28;20039;-78
2022/08/06 08:28:25;;;;;;;13.32;6.70;;;;;;;-147.76;100.00;60361.69;5110121;28;20140;-78
2022/08/06 08:30:52;;;;;;;12.30;6.80;;;;;;;-147.76;100.00;60361.69;5109606;28;20077;-80
2022/08/06 08:33:20;;;;;;;11.00;6.75;;;;;;;-147.76;100.00;60361.69;5110188;28;20427;-80
2022/08/06 08:35:48;;;;;;;11.68;7.13;;;;;;;-147.76;100.00;60361.69;5109787;28;20039;-82
2022/08/06 08:38:16;;;;;;;11.52;7.15;;;;;;;-147.76;100.00;60361.69;5109387;27;20055;-79
2022/08/06 08:40:45;;;;;;;15.07;7.47;;;;;;;-147.76;100.00;60361.69;5108607;28;20789;-78
2022/08/06 08:43:19;;;;;;;14.63;7.30;;;;;;;-147.76;100.00;60361.69;5110145;28;20070;-77
2022/08/06 08:45:49;;;;;;;14.82;7.45;;;;;;;-147.76;100.00;60361.69;5106189;28;20062;-78
2022/08/06 08:48:17;;;;;;;15.15;7.70;;;;;;;-147.76;100.00;60361.69;5109299;27;20051;-78
2022/08/06 08:50:45;;;;;;;12.13;7.13;;;;;;;-147.76;100.00;60361.69;5102761;28;20080;-78
2022/08/06 08:53:15;;;;;;;13.48;7.70;;;;;;;-147.76;100.00;60361.69;5109091;28;20054;-78
2022/08/06 08:55:42;;;;;;;12.75;8.18;;;;;;;-147.76;100.00;60361.69;5109363;28;20084;-78
2022/08/06 08:58:10;;;;;;;12.80;7.78;;;;;;;-147.76;100.00;60361.69;5109172;28;20043;-78
2022/08/06 09:00:39;;;;;;;14.25;7.95;;;;;;;-147.76;100.00;60361.69;5109066;28;20048;-79
2022/08/06 09:03:07;;;;;;;14.75;7.63;;;;;;;-147.76;100.00;60361.69;5109484;28;20519;-80
2022/08/06 09:05:36;;;;;;;13.43;7.65;;;;;;;-147.76;100.00;60361.69;5108928;28;20048;-80
2022/08/06 09:08:04;;;;;;;12.02;7.28;;;;;;;-147.76;100.00;60361.69;5109215;27;20043;-79
2022/08/06 09:10:32;;;;;;;14.82;6.82;;;;;;;-147.76;100.00;60361.69;5109275;28;20054;-78
2022/08/06 09:12:59;;;;;;;10.30;7.10;;;;;;;-147.76;100.00;60361.69;5109112;28;20267;-81
2022/08/06 09:15:27;;;;;;;14.27;7.32;;;;;;;-147.76;100.00;60361.69;5108558;28;20059;-78
2022/08/06 09:17:56;;;;;;;16.55;9.68;;;;;;;-147.76;100.00;60361.69;5109087;28;20542;-85
2022/08/06 09:20:23;;;;;;;19.40;10.35;;;;;;;-147.76;100.00;60361.69;5109227;27;20051;-80
2022/08/06 09:22:52;;;;;;;20.92;10.05;;;;;;;-147.76;100.00;60361.69;5109550;28;20408;-87
2022/08/06 09:25:41;;;;;;;18.85;10.57;;;;;;;-147.76;100.00;60361.69;5108845;28;20082;-83
2022/08/06 09:28:12;;;;;;;19.05;11.93;;;;;;;-147.76;100.00;60361.69;5103945;28;20405;-85
2022/08/06 09:30:40;;;;;;;15.70;10.70;;;;;;;-147.76;100.00;60361.69;5109089;28;20112;-87
2022/08/06 09:33:15;;;;;;;18.35;11.35;;;;;;;-147.76;100.00;60361.69;5108238;28;20051;-85
2022/08/06 09:35:43;;;;;;;21.02;11.65;;;;;;;-147.76;100.00;60361.69;5104542;28;20036;-88
2022/08/06 09:38:10;;;;;;;16.88;12.10;;;;;;;-147.76;100.00;60361.69;5108968;28;20043;-80
2022/08/06 09:40:38;;;;;;;17.75;11.90;;;;;;;-147.76;100.00;60361.69;5108750;28;20055;-81
2022/08/06 09:43:05;;;;;;;18.35;12.40;;;;;;;-147.76;100.00;60361.69;5108275;27;20047;-86
2022/08/06 09:45:33;;;;;;;19.13;13.07;;;;;;;-147.76;100.00;60361.69;5108539;28;20048;-82
2022/08/06 09:48:06;;;;;;;19.02;12.95;;;;;;;-147.76;100.00;60361.69;5108942;28;20050;-82
2022/08/06 09:50:40;;;;;;;24.48;13.10;;;;;;;-147.76;100.00;60361.69;5110575;28;20432;-79
2022/08/06 09:53:08;;;;;;;18.05;12.38;;;;;;;-147.76;100.00;60361.69;5106791;28;20093;-86
2022/08/06 09:55:37;;;;;;;17.77;12.80;;;;;;;-147.76;100.00;60361.69;5107757;28;20068;-81
2022/08/06 09:58:05;;;;;;;20.00;12.02;;;;;;;-147.76;100.00;60361.69;5108773;27;20356;-80
2022/08/06 10:00:33;;;;;;;19.58;13.02;;;;;;;-147.76;100.00;60361.69;5109158;27;20043;-81
2022/08/06 10:03:02;;;;;;;22.05;12.20;;;;;;;-147.76;100.00;60361.69;5108520;27;20043;-83
2022/08/06 10:05:31;;;;;;;25.13;12.23;;;;;;;-147.76;100.00;60361.69;5108453;28;20039;-84
2022/08/06 10:08:09;;;;;;;21.63;12.88;;;;;;;-147.76;100.00;60361.69;5108565;28;20043;-80
2022/08/06 10:10:41;;;;;;;22.60;13.35;;;;;;;-147.76;100.00;60361.69;5108432;28;20047;-82
2022/08/06 10:13:23;;;;;;;19.90;13.68;;;;;;;-147.76;100.00;60361.69;5108109;28;20531;-80
2022/08/06 10:15:51;;;;;;;27.63;12.95;;;;;;;-147.76;100.00;60361.69;5103870;28;20052;-80
2022/08/06 10:18:31;;;;;;;20.95;13.75;;;;;;;-147.76;100.00;60361.69;5108701;28;20039;-80
2022/08/06 10:21:04;;;;;;;24.70;14.85;;;;;;;-147.76;100.00;60361.69;5102380;28;20039;-79
2022/08/06 10:23:34;;;;;;;22.17;14.05;;;;;;;-147.76;100.00;60361.69;5108113;28;20496;-81
2022/08/06 10:26:04;;;;;;;18.95;14.48;;;;;;;-147.76;100.00;60361.69;5108035;28;20100;-82
2022/08/06 10:28:34;;;;;;;19.35;13.93;;;;;;;-147.76;100.00;60361.69;5108139;28;20039;-82
2022/08/06 10:31:03;;;;;;;28.45;14.57;;;;;;;-147.76;100.00;60361.69;5109052;28;20055;-80
2022/08/06 10:33:34;;;;;;;22.42;13.95;;;;;;;-147.76;100.00;60361.69;5108370;28;20047;-81
2022/08/06 10:36:06;;;;;;;20.88;14.40;;;;;;;-147.76;100.00;60361.69;5110003;28;20452;-82
2022/08/06 10:38:37;;;;;;;23.35;14.75;;;;;;;-147.76;100.00;60361.69;5108217;28;20109;-76
2022/08/06 10:41:08;;;;;;;23.92;14.05;;;;;;;-147.76;100.00;60361.69;5108426;28;20044;-76
2022/08/06 10:43:37;;;;;;;22.27;14.65;;;;;;;-147.76;100.00;60361.69;5108305;28;20077;-77
2022/08/06 10:46:06;;;;;;;19.80;14.35;;;;;;;-147.76;100.00;60361.69;5110868;27;20044;-83
2022/08/06 10:48:35;;;;;;;19.00;14.07;;;;;;;-147.76;100.00;60361.69;5111909;28;20105;-81
2022/08/06 10:51:04;;;;;;;25.65;14.18;;;;;;;-147.76;100.00;60361.69;5111692;28;20487;-84
2022/08/06 10:53:32;;;;;;;18.88;13.70;;;;;;;-147.76;100.00;60361.69;5111881;28;20055;-83
2022/08/06 10:56:04;;;;;;;18.85;13.30;;;;;;;-147.76;100.00;60361.69;5112064;28;20067;-82
2022/08/06 10:58:32;;;;;;;24.35;14.80;;;;;;;-147.76;100.00;60361.69;5108934;28;20051;-88
2022/08/06 11:01:01;;;;;;;23.88;13.45;;;;;;;-147.76;100.00;60361.69;5115434;28;20040;-80
2022/08/06 11:03:38;;;;;;;23.60;13.95;;;;;;;-147.76;100.00;60361.69;5115097;28;20054;-79
2022/08/06 11:06:20;;;;;;;20.50;12.30;;;;;;;-147.76;100.00;60361.69;5116335;28;20040;-80
2022/08/06 11:08:58;;;;;;;21.48;10.30;;;;;;;-147.76;100.00;60361.69;5116761;28;20520;-82
2022/08/06 11:11:38;;;;;;;22.55;10.18;;;;;;;-147.76;100.00;60361.69;5115533;28;20489;-83
2022/08/06 11:14:09;;;;;;;23.00;9.82;;;;;;;-147.76;100.00;60361.69;5116965;28;20122;-82
2022/08/06 11:16:38;;;;;;;16.67;8.63;;;;;;;-147.76;100.00;60361.69;5114715;28;20390;-82
2022/08/06 11:19:09;;;;;;;14.75;8.90;;;;;;;-147.76;100.00;60361.69;5115003;28;20054;-86